sensor_id;sensor_type;location;lat;lon;timestamp;pressure;altitude;pressure_sealevel;temperature;humidity
9889;BME280;4983;42.112;24.738;2023-11-18T00:00:29;98702.13;;;10.13;100.00
9889;BME280;4983;42.112;24.738;2023-11-18T00:02:56;98702.66;;;10.08;100.00
9889;BME280;4983;42.112;24.738;2023-11-18T00:05:23;98694.38;;;10.10;100.00
9889;BME280;4983;42.112;24.738;2023-11-18T00:07:51;98706.06;;;10.18;100.00
9889;BME280;4983;42.112;24.738;2023-11-18T00:10:19;98721.06;;;10.13;100.00
9889;BME280;4983;42.112;24.738;2023-11-18T00:12:46;98710.09;;;10.06;100.00
9889;BME280;4983;42.112;24.738;2023-11-18T00:15:13;98714.63;;;10.06;100.00
9889;BME280;4983;42.112;24.738;2023-11-18T00:17:41;98724.03;;;10.02;100.00
9889;BME280;4983;42.112;24.738;2023-11-18T00:20:09;98718.50;;;10.03;100.00
9889;BME280;4983;42.112;24.738;2023-11-18T00:22:36;98720.25;;;10.12;100.00
9889;BME280;4983;42.112;24.738;2023-11-18T00:25:03;98721.91;;;10.13;100.00
9889;BME280;4983;42.112;24.738;2023-11-18T00:27:33;98721.09;;;10.21;100.00
9889;BME280;4983;42.112;24.738;2023-11-18T00:30:02;98715.81;;;10.11;100.00
9889;BME280;4983;42.112;24.738;2023-11-18T00:32:31;98719.53;;;10.10;100.00
9889;BME280;4983;42.112;24.738;2023-11-18T00:34:58;98715.34;;;10.16;100.00
9889;BME280;4983;42.112;24.738;2023-11-18T00:37:25;98717.19;;;10.15;100.00
9889;BME280;4983;42.112;24.738;2023-11-18T00:39:53;98706.06;;;10.26;100.00
9889;BME280;4983;42.112;24.738;2023-11-18T00:42:20;98707.59;;;10.37;100.00
9889;BME280;4983;42.112;24.738;2023-11-18T00:44:48;98706.41;;;10.31;100.00
9889;BME280;4983;42.112;24.738;2023-11-18T00:47:15;98715.72;;;10.37;100.00
9889;BME280;4983;42.112;24.738;2023-11-18T00:49:42;98715.91;;;10.51;100.00
9889;BME280;4983;42.112;24.738;2023-11-18T00:52:08;98712.53;;;10.57;100.00
9889;BME280;4983;42.112;24.738;2023-11-18T00:54:35;98705.28;;;10.58;100.00
9889;BME280;4983;42.112;24.738;2023-11-18T00:57:02;98726.75;;;10.67;100.00
9889;BME280;4983;42.112;24.738;2023-11-18T00:59:29;98723.03;;;10.68;100.00
9889;BME280;4983;42.112;24.738;2023-11-18T01:01:57;98723.38;;;10.81;100.00
9889;BME280;4983;42.112;24.738;2023-11-18T01:04:24;98730.16;;;10.77;100.00
9889;BME280;4983;42.112;24.738;2023-11-18T01:06:51;98727.63;;;10.76;100.00
9889;BME280;4983;42.112;24.738;2023-11-18T01:09:18;98734.88;;;10.75;100.00
9889;BME280;4983;42.112;24.738;2023-11-18T01:11:45;98747.72;;;10.81;100.00
9889;BME280;4983;42.112;24.738;2023-11-18T01:14:12;98740.47;;;10.74;100.00
9889;BME280;4983;42.112;24.738;2023-11-18T01:16:39;98750.94;;;10.69;100.00
9889;BME280;4983;42.112;24.738;2023-11-18T01:19:07;98753.16;;;10.65;100.00
9889;BME280;4983;42.112;24.738;2023-11-18T01:21:34;98754.81;;;10.58;100.00
9889;BME280;4983;42.112;24.738;2023-11-18T01:24:03;98768.84;;;10.54;100.00
9889;BME280;4983;42.112;24.738;2023-11-18T01:26:32;98753.31;;;10.56;100.00
9889;BME280;4983;42.112;24.738;2023-11-18T01:28:58;98761.22;;;10.57;100.00
9889;BME280;4983;42.112;24.738;2023-11-18T01:31:25;98773.53;;;10.44;100.00
9889;BME280;4983;42.112;24.738;2023-11-18T01:33:52;98765.75;;;10.41;100.00
9889;BME280;4983;42.112;24.738;2023-11-18T01:36:22;98781.28;;;10.31;100.00
9889;BME280;4983;42.112;24.738;2023-11-18T01:38:49;98768.78;;;10.30;100.00
9889;BME280;4983;42.112;24.738;2023-11-18T01:41:16;98752.19;;;10.25;100.00
9889;BME280;4983;42.112;24.738;2023-11-18T01:43:45;98751.31;;;10.16;100.00
9889;BME280;4983;42.112;24.738;2023-11-18T01:46:13;98755.03;;;10.15;100.00
9889;BME280;4983;42.112;24.738;2023-11-18T01:48:40;98763.66;;;10.11;100.00
9889;BME280;4983;42.112;24.738;2023-11-18T01:51:09;98768.91;;;10.20;100.00
9889;BME280;4983;42.112;24.738;2023-11-18T01:53:39;98768.13;;;10.02;100.00
9889;BME280;4983;42.112;24.738;2023-11-18T01:56:09;98770.47;;;9.97;100.00
9889;BME280;4983;42.112;24.738;2023-11-18T01:58:37;98778.72;;;9.96;100.00
9889;BME280;4983;42.112;24.738;2023-11-18T02:01:06;98768.69;;;9.80;100.00
9889;BME280;4983;42.112;24.738;2023-11-18T02:03:35;98771.22;;;9.74;100.00
9889;BME280;4983;42.112;24.738;2023-11-18T02:06:04;98761.25;;;9.74;100.00
9889;BME280;4983;42.112;24.738;2023-11-18T02:08:33;98778.34;;;9.57;100.00
9889;BME280;4983;42.112;24.738;2023-11-18T02:11:08;98760.84;;;9.61;100.00
9889;BME280;4983;42.112;24.738;2023-11-18T02:13:39;98770.38;;;9.48;100.00
9889;BME280;4983;42.112;24.738;2023-11-18T02:16:08;98775.56;;;9.41;100.00
9889;BME280;4983;42.112;24.738;2023-11-18T02:18:38;98778.06;;;9.35;100.00
9889;BME280;4983;42.112;24.738;2023-11-18T02:21:07;98791.13;;;9.22;100.00
9889;BME280;4983;42.112;24.738;2023-11-18T02:23:35;98789.09;;;9.24;100.00
9889;BME280;4983;42.112;24.738;2023-11-18T02:26:04;98785.50;;;9.15;100.00
9889;BME280;4983;42.112;24.738;2023-11-18T02:28:32;98787.41;;;9.05;100.00
9889;BME280;4983;42.112;24.738;2023-11-18T02:31:02;98783.66;;;8.98;100.00
9889;BME280;4983;42.112;24.738;2023-11-18T02:33:35;98786.97;;;8.93;100.00
9889;BME280;4983;42.112;24.738;2023-11-18T02:36:10;98790.69;;;8.92;100.00
9889;BME280;4983;42.112;24.738;2023-11-18T02:38:45;98780.84;;;8.83;100.00
9889;BME280;4983;42.112;24.738;2023-11-18T02:41:16;98768.66;;;8.79;100.00
9889;BME280;4983;42.112;24.738;2023-11-18T02:43:44;98790.38;;;8.77;100.00
9889;BME280;4983;42.112;24.738;2023-11-18T02:46:12;98798.25;;;8.71;100.00
9889;BME280;4983;42.112;24.738;2023-11-18T02:48:40;98819.66;;;8.72;100.00
9889;BME280;4983;42.112;24.738;2023-11-18T02:51:07;98793.38;;;8.57;100.00
9889;BME280;4983;42.112;24.738;2023-11-18T02:53:35;98783.47;;;8.57;100.00
9889;BME280;4983;42.112;24.738;2023-11-18T02:56:02;98794.25;;;8.57;100.00
9889;BME280;4983;42.112;24.738;2023-11-18T02:58:31;98790.91;;;8.46;100.00
9889;BME280;4983;42.112;24.738;2023-11-18T03:00:58;98804.31;;;8.38;100.00
9889;BME280;4983;42.112;24.738;2023-11-18T03:03:26;98799.91;;;8.37;100.00
9889;BME280;4983;42.112;24.738;2023-11-18T03:05:53;98799.44;;;8.41;100.00
9889;BME280;4983;42.112;24.738;2023-11-18T03:08:20;98791.13;;;8.35;100.00
9889;BME280;4983;42.112;24.738;2023-11-18T03:10:47;98802.75;;;8.35;100.00
9889;BME280;4983;42.112;24.738;2023-11-18T03:13:18;98788.75;;;8.32;100.00
9889;BME280;4983;42.112;24.738;2023-11-18T03:15:46;98790.63;;;8.22;100.00
9889;BME280;4983;42.112;24.738;2023-11-18T03:18:14;98790.50;;;8.23;100.00
9889;BME280;4983;42.112;24.738;2023-11-18T03:20:41;98789.81;;;8.21;100.00
9889;BME280;4983;42.112;24.738;2023-11-18T03:23:08;98799.72;;;8.21;100.00
9889;BME280;4983;42.112;24.738;2023-11-18T03:25:35;98791.88;;;8.18;100.00
9889;BME280;4983;42.112;24.738;2023-11-18T03:28:03;98790.78;;;8.11;100.00
9889;BME280;4983;42.112;24.738;2023-11-18T03:30:33;98789.78;;;8.12;100.00
9889;BME280;4983;42.112;24.738;2023-11-18T03:33:03;98801.75;;;8.09;100.00
9889;BME280;4983;42.112;24.738;2023-11-18T03:35:30;98795.19;;;8.12;100.00
9889;BME280;4983;42.112;24.738;2023-11-18T03:37:58;98792.94;;;8.07;100.00
9889;BME280;4983;42.112;24.738;2023-11-18T03:40:26;98796.38;;;8.00;100.00
9889;BME280;4983;42.112;24.738;2023-11-18T03:42:54;98808.72;;;8.02;100.00
9889;BME280;4983;42.112;24.738;2023-11-18T03:45:22;98814.56;;;7.98;100.00
9889;BME280;4983;42.112;24.738;2023-11-18T03:47:49;98807.88;;;8.02;100.00
9889;BME280;4983;42.112;24.738;2023-11-18T03:50:18;98806.56;;;8.06;100.00
9889;BME280;4983;42.112;24.738;2023-11-18T03:52:45;98810.72;;;8.00;100.00
9889;BME280;4983;42.112;24.738;2023-11-18T03:55:12;98818.09;;;7.98;100.00
9889;BME280;4983;42.112;24.738;2023-11-18T03:57:39;98800.88;;;8.09;100.00
9889;BME280;4983;42.112;24.738;2023-11-18T04:00:07;98806.56;;;8.06;100.00
9889;BME280;4983;42.112;24.738;2023-11-18T04:02:37;98791.13;;;8.08;100.00
9889;BME280;4983;42.112;24.738;2023-11-18T04:05:06;98784.72;;;8.09;100.00
9889;BME280;4983;42.112;24.738;2023-11-18T04:07:35;98794.22;;;8.13;100.00
9889;BME280;4983;42.112;24.738;2023-11-18T04:10:02;98796.34;;;8.09;100.00
9889;BME280;4983;42.112;24.738;2023-11-18T04:12:31;98780.63;;;8.05;100.00
9889;BME280;4983;42.112;24.738;2023-11-18T04:14:58;98787.00;;;8.04;100.00
9889;BME280;4983;42.112;24.738;2023-11-18T04:17:26;98793.50;;;8.11;100.00
9889;BME280;4983;42.112;24.738;2023-11-18T04:19:53;98786.41;;;8.10;100.00
9889;BME280;4983;42.112;24.738;2023-11-18T04:22:21;98787.69;;;8.06;100.00
9889;BME280;4983;42.112;24.738;2023-11-18T04:24:50;98770.09;;;8.11;100.00
9889;BME280;4983;42.112;24.738;2023-11-18T04:27:16;98780.19;;;8.09;100.00
9889;BME280;4983;42.112;24.738;2023-11-18T04:29:44;98789.66;;;8.13;100.00
9889;BME280;4983;42.112;24.738;2023-11-18T04:32:10;98799.13;;;8.17;100.00
9889;BME280;4983;42.112;24.738;2023-11-18T04:34:39;98786.81;;;8.15;100.00
9889;BME280;4983;42.112;24.738;2023-11-18T04:37:08;98796.19;;;8.11;100.00
9889;BME280;4983;42.112;24.738;2023-11-18T04:39:35;98792.66;;;8.10;100.00
9889;BME280;4983;42.112;24.738;2023-11-18T04:42:04;98795.78;;;8.06;100.00
9889;BME280;4983;42.112;24.738;2023-11-18T04:44:31;98794.81;;;8.07;100.00
9889;BME280;4983;42.112;24.738;2023-11-18T04:46:58;98813.81;;;8.05;100.00
9889;BME280;4983;42.112;24.738;2023-11-18T04:49:26;98825.88;;;8.01;100.00
9889;BME280;4983;42.112;24.738;2023-11-18T04:51:53;98840.22;;;8.02;100.00
9889;BME280;4983;42.112;24.738;2023-11-18T04:54:20;98832.25;;;8.00;100.00
9889;BME280;4983;42.112;24.738;2023-11-18T04:56:47;98825.63;;;7.95;100.00
9889;BME280;4983;42.112;24.738;2023-11-18T04:59:15;98822.38;;;7.91;100.00
9889;BME280;4983;42.112;24.738;2023-11-18T05:01:43;98828.34;;;7.95;100.00
9889;BME280;4983;42.112;24.738;2023-11-18T05:04:10;98817.16;;;7.90;100.00
9889;BME280;4983;42.112;24.738;2023-11-18T05:06:37;98811.22;;;7.86;100.00
9889;BME280;4983;42.112;24.738;2023-11-18T05:09:04;98816.44;;;7.88;100.00
9889;BME280;4983;42.112;24.738;2023-11-18T05:11:33;98822.81;;;7.87;100.00
9889;BME280;4983;42.112;24.738;2023-11-18T05:14:00;98817.34;;;7.79;100.00
9889;BME280;4983;42.112;24.738;2023-11-18T05:16:30;98815.09;;;7.74;100.00
9889;BME280;4983;42.112;24.738;2023-11-18T05:18:57;98813.81;;;7.69;100.00
9889;BME280;4983;42.112;24.738;2023-11-18T05:21:24;98821.19;;;7.67;100.00
9889;BME280;4983;42.112;24.738;2023-11-18T05:23:51;98814.25;;;7.64;100.00
9889;BME280;4983;42.112;24.738;2023-11-18T05:26:18;98802.63;;;7.64;100.00
9889;BME280;4983;42.112;24.738;2023-11-18T05:28:45;98799.09;;;7.63;100.00
9889;BME280;4983;42.112;24.738;2023-11-18T05:31:12;98797.84;;;7.58;100.00
9889;BME280;4983;42.112;24.738;2023-11-18T05:33:41;98801.66;;;7.55;100.00
9889;BME280;4983;42.112;24.738;2023-11-18T05:36:08;98801.63;;;7.65;100.00
9889;BME280;4983;42.112;24.738;2023-11-18T05:38:37;98816.97;;;7.64;100.00
9889;BME280;4983;42.112;24.738;2023-11-18T05:41:04;98827.16;;;7.61;100.00
9889;BME280;4983;42.112;24.738;2023-11-18T05:43:33;98835.53;;;7.58;100.00
9889;BME280;4983;42.112;24.738;2023-11-18T05:46:05;98840.91;;;7.58;100.00
9889;BME280;4983;42.112;24.738;2023-11-18T05:48:47;98825.06;;;7.55;100.00
9889;BME280;4983;42.112;24.738;2023-11-18T05:51:19;98851.53;;;7.59;100.00
9889;BME280;4983;42.112;24.738;2023-11-18T05:53:45;98866.44;;;7.54;100.00
9889;BME280;4983;42.112;24.738;2023-11-18T05:56:13;98846.47;;;7.47;100.00
9889;BME280;4983;42.112;24.738;2023-11-18T05:58:40;98822.41;;;7.45;100.00
9889;BME280;4983;42.112;24.738;2023-11-18T06:01:08;98831.47;;;7.44;100.00
9889;BME280;4983;42.112;24.738;2023-11-18T06:03:36;98826.66;;;7.48;100.00
9889;BME280;4983;42.112;24.738;2023-11-18T06:06:06;98856.09;;;7.49;100.00
9889;BME280;4983;42.112;24.738;2023-11-18T06:08:34;98874.25;;;7.47;100.00
9889;BME280;4983;42.112;24.738;2023-11-18T06:11:01;98862.91;;;7.44;100.00
9889;BME280;4983;42.112;24.738;2023-11-18T06:13:39;98887.28;;;7.42;100.00
9889;BME280;4983;42.112;24.738;2023-11-18T06:16:09;98892.78;;;7.41;100.00
9889;BME280;4983;42.112;24.738;2023-11-18T06:18:40;98885.56;;;7.41;100.00
9889;BME280;4983;42.112;24.738;2023-11-18T06:21:10;98881.63;;;7.45;100.00
9889;BME280;4983;42.112;24.738;2023-11-18T06:23:37;98858.09;;;7.38;100.00
9889;BME280;4983;42.112;24.738;2023-11-18T06:26:05;98854.00;;;7.34;100.00
9889;BME280;4983;42.112;24.738;2023-11-18T06:28:32;98869.13;;;7.35;100.00
9889;BME280;4983;42.112;24.738;2023-11-18T06:30:59;98878.78;;;7.37;100.00
9889;BME280;4983;42.112;24.738;2023-11-18T06:33:26;98853.16;;;7.33;100.00
9889;BME280;4983;42.112;24.738;2023-11-18T06:35:53;98864.63;;;7.35;100.00
9889;BME280;4983;42.112;24.738;2023-11-18T06:38:23;98867.19;;;7.37;100.00
9889;BME280;4983;42.112;24.738;2023-11-18T06:40:50;98864.63;;;7.35;100.00
9889;BME280;4983;42.112;24.738;2023-11-18T06:43:19;98862.06;;;7.34;100.00
9889;BME280;4983;42.112;24.738;2023-11-18T06:45:46;98873.25;;;7.39;100.00
9889;BME280;4983;42.112;24.738;2023-11-18T06:48:14;98867.88;;;7.39;100.00
9889;BME280;4983;42.112;24.738;2023-11-18T06:50:46;98871.84;;;7.35;100.00
9889;BME280;4983;42.112;24.738;2023-11-18T06:53:12;98877.22;;;7.35;100.00
9889;BME280;4983;42.112;24.738;2023-11-18T06:55:43;98872.13;;;7.32;99.47
9889;BME280;4983;42.112;24.738;2023-11-18T06:58:10;98866.44;;;7.35;99.88
9889;BME280;4983;42.112;24.738;2023-11-18T07:00:38;98887.00;;;7.36;100.00
9889;BME280;4983;42.112;24.738;2023-11-18T07:03:05;98900.47;;;7.45;100.00
9889;BME280;4983;42.112;24.738;2023-11-18T07:05:32;98881.91;;;7.33;98.03
9889;BME280;4983;42.112;24.738;2023-11-18T07:07:59;98869.00;;;7.36;97.00
9889;BME280;4983;42.112;24.738;2023-11-18T07:10:27;98865.88;;;7.41;97.80
9889;BME280;4983;42.112;24.738;2023-11-18T07:12:55;98870.00;;;7.45;98.49
9889;BME280;4983;42.112;24.738;2023-11-18T07:15:22;98856.84;;;7.42;97.58
9889;BME280;4983;42.112;24.738;2023-11-18T07:17:49;98862.91;;;7.44;95.85
9889;BME280;4983;42.112;24.738;2023-11-18T07:20:16;98864.59;;;7.45;95.25
9889;BME280;4983;42.112;24.738;2023-11-18T07:22:43;98874.09;;;7.49;97.89
9889;BME280;4983;42.112;24.738;2023-11-18T07:25:10;98864.72;;;7.53;96.74
9889;BME280;4983;42.112;24.738;2023-11-18T07:27:38;98850.44;;;7.52;95.63
9889;BME280;4983;42.112;24.738;2023-11-18T07:30:07;98852.44;;;7.50;95.42
9889;BME280;4983;42.112;24.738;2023-11-18T07:32:36;98849.00;;;7.58;96.27
9889;BME280;4983;42.112;24.738;2023-11-18T07:35:04;98846.84;;;7.61;94.59
9889;BME280;4983;42.112;24.738;2023-11-18T07:37:34;98840.50;;;7.62;94.07
9889;BME280;4983;42.112;24.738;2023-11-18T07:40:03;98851.66;;;7.67;94.80
9889;BME280;4983;42.112;24.738;2023-11-18T07:42:31;98855.06;;;7.69;97.29
9889;BME280;4983;42.112;24.738;2023-11-18T07:45:00;98830.53;;;7.72;94.58
9889;BME280;4983;42.112;24.738;2023-11-18T07:47:30;98820.47;;;7.74;94.58
9889;BME280;4983;42.112;24.738;2023-11-18T07:49:58;98802.00;;;7.79;93.33
9889;BME280;4983;42.112;24.738;2023-11-18T07:52:26;98807.56;;;7.78;90.61
9889;BME280;4983;42.112;24.738;2023-11-18T07:54:54;98803.28;;;7.85;91.92
9889;BME280;4983;42.112;24.738;2023-11-18T07:57:22;98806.97;;;7.84;91.49
9889;BME280;4983;42.112;24.738;2023-11-18T07:59:49;98802.69;;;7.91;89.83
9889;BME280;4983;42.112;24.738;2023-11-18T08:02:17;98801.00;;;7.90;88.88
9889;BME280;4983;42.112;24.738;2023-11-18T08:04:46;98808.75;;;7.93;89.70
9889;BME280;4983;42.112;24.738;2023-11-18T08:07:13;98800.69;;;7.93;88.70
9889;BME280;4983;42.112;24.738;2023-11-18T08:09:40;98793.69;;;8.00;88.13
9889;BME280;4983;42.112;24.738;2023-11-18T08:12:09;98820.03;;;8.06;89.30
9889;BME280;4983;42.112;24.738;2023-11-18T08:14:36;98803.13;;;8.13;89.00
9889;BME280;4983;42.112;24.738;2023-11-18T08:17:03;98806.69;;;8.14;89.48
9889;BME280;4983;42.112;24.738;2023-11-18T08:19:31;98801.88;;;8.08;89.58
9889;BME280;4983;42.112;24.738;2023-11-18T08:22:01;98810.44;;;8.03;89.17
9889;BME280;4983;42.112;24.738;2023-11-18T08:24:29;98806.41;;;8.07;87.61
9889;BME280;4983;42.112;24.738;2023-11-18T08:26:58;98789.25;;;8.08;86.98
9889;BME280;4983;42.112;24.738;2023-11-18T08:29:26;98811.06;;;8.15;88.94
9889;BME280;4983;42.112;24.738;2023-11-18T08:31:56;98788.56;;;8.06;85.76
9889;BME280;4983;42.112;24.738;2023-11-18T08:34:23;98799.59;;;8.13;87.68
9889;BME280;4983;42.112;24.738;2023-11-18T08:36:51;98806.38;;;8.17;86.59
9889;BME280;4983;42.112;24.738;2023-11-18T08:39:20;98797.34;;;8.08;85.69
9889;BME280;4983;42.112;24.738;2023-11-18T08:41:51;98810.06;;;8.16;87.36
9889;BME280;4983;42.112;24.738;2023-11-18T08:44:18;98823.13;;;8.20;86.59
9889;BME280;4983;42.112;24.738;2023-11-18T08:46:46;98819.69;;;8.18;87.13
9889;BME280;4983;42.112;24.738;2023-11-18T08:49:13;98824.22;;;8.18;86.51
9889;BME280;4983;42.112;24.738;2023-11-18T08:51:48;98805.97;;;8.12;85.50
9889;BME280;4983;42.112;24.738;2023-11-18T08:54:22;98804.25;;;8.20;85.25
9889;BME280;4983;42.112;24.738;2023-11-18T08:56:51;98800.41;;;8.23;85.34
9889;BME280;4983;42.112;24.738;2023-11-18T08:59:19;98794.28;;;8.30;85.44
9889;BME280;4983;42.112;24.738;2023-11-18T09:01:51;98779.09;;;8.29;81.80
9889;BME280;4983;42.112;24.738;2023-11-18T09:04:22;98774.56;;;8.30;83.81
9889;BME280;4983;42.112;24.738;2023-11-18T09:06:49;98772.25;;;8.35;83.81
9889;BME280;4983;42.112;24.738;2023-11-18T09:09:22;98766.84;;;8.35;83.32
9889;BME280;4983;42.112;24.738;2023-11-18T09:11:53;98776.34;;;8.39;84.40
9889;BME280;4983;42.112;24.738;2023-11-18T09:14:22;98773.56;;;8.48;82.90
9889;BME280;4983;42.112;24.738;2023-11-18T09:16:51;98752.75;;;8.41;82.22
9889;BME280;4983;42.112;24.738;2023-11-18T09:19:20;98770.13;;;8.56;84.11
9889;BME280;4983;42.112;24.738;2023-11-18T09:21:48;98759.00;;;8.59;83.56
9889;BME280;4983;42.112;24.738;2023-11-18T09:24:17;98769.03;;;8.66;84.63
9889;BME280;4983;42.112;24.738;2023-11-18T09:26:46;98774.53;;;8.74;83.41
9889;BME280;4983;42.112;24.738;2023-11-18T09:29:15;98766.97;;;8.78;84.45
9889;BME280;4983;42.112;24.738;2023-11-18T09:31:45;98777.44;;;8.81;82.40
9889;BME280;4983;42.112;24.738;2023-11-18T09:34:13;98745.91;;;8.64;82.41
9889;BME280;4983;42.112;24.738;2023-11-18T09:36:42;98766.03;;;8.69;83.89
9889;BME280;4983;42.112;24.738;2023-11-18T09:39:10;98747.59;;;8.65;82.66
9889;BME280;4983;42.112;24.738;2023-11-18T09:41:42;98775.50;;;8.56;82.08
9889;BME280;4983;42.112;24.738;2023-11-18T09:44:10;98740.75;;;8.53;82.18
9889;BME280;4983;42.112;24.738;2023-11-18T09:46:41;98741.13;;;8.58;82.43
9889;BME280;4983;42.112;24.738;2023-11-18T09:49:19;98756.88;;;8.62;84.28
9889;BME280;4983;42.112;24.738;2023-11-18T09:51:54;98749.22;;;8.58;83.81
9889;BME280;4983;42.112;24.738;2023-11-18T09:54:29;98739.91;;;8.52;83.77
9889;BME280;4983;42.112;24.738;2023-11-18T09:57:03;98763.88;;;8.55;83.67
9889;BME280;4983;42.112;24.738;2023-11-18T09:59:42;98754.81;;;8.56;84.18
9889;BME280;4983;42.112;24.738;2023-11-18T10:02:11;98738.84;;;8.45;83.09
9889;BME280;4983;42.112;24.738;2023-11-18T10:04:39;98749.31;;;8.48;83.31
9889;BME280;4983;42.112;24.738;2023-11-18T10:07:06;98730.44;;;8.48;83.62
9889;BME280;4983;42.112;24.738;2023-11-18T10:09:36;98720.50;;;8.49;81.18
9889;BME280;4983;42.112;24.738;2023-11-18T10:12:07;98716.13;;;8.48;80.67
9889;BME280;4983;42.112;24.738;2023-11-18T10:14:42;98718.88;;;8.56;82.10
9889;BME280;4983;42.112;24.738;2023-11-18T10:17:10;98719.56;;;8.58;81.35
9889;BME280;4983;42.112;24.738;2023-11-18T10:19:50;98737.91;;;8.54;80.71
9889;BME280;4983;42.112;24.738;2023-11-18T10:22:22;98728.44;;;8.68;80.63
9889;BME280;4983;42.112;24.738;2023-11-18T10:24:50;98705.50;;;8.89;81.76
9889;BME280;4983;42.112;24.738;2023-11-18T10:27:21;98732.09;;;8.84;81.41
9889;BME280;4983;42.112;24.738;2023-11-18T10:29:55;98723.72;;;8.87;81.86
9889;BME280;4983;42.112;24.738;2023-11-18T10:32:22;98727.78;;;8.91;81.21
9889;BME280;4983;42.112;24.738;2023-11-18T10:34:54;98723.88;;;8.86;80.94
9889;BME280;4983;42.112;24.738;2023-11-18T10:37:22;98729.09;;;8.87;81.09
9889;BME280;4983;42.112;24.738;2023-11-18T10:39:49;98682.81;;;8.99;79.35
9889;BME280;4983;42.112;24.738;2023-11-18T10:42:17;98690.91;;;8.99;79.49
9889;BME280;4983;42.112;24.738;2023-11-18T10:44:58;98702.22;;;9.28;80.86
9889;BME280;4983;42.112;24.738;2023-11-18T10:47:27;98698.94;;;9.68;81.48
9889;BME280;4983;42.112;24.738;2023-11-18T10:49:54;98672.25;;;9.39;77.87
9889;BME280;4983;42.112;24.738;2023-11-18T10:52:22;98660.16;;;9.43;77.13
9889;BME280;4983;42.112;24.738;2023-11-18T10:54:51;98697.41;;;9.73;80.63
9889;BME280;4983;42.112;24.738;2023-11-18T10:57:20;98666.94;;;9.55;79.02
9889;BME280;4983;42.112;24.738;2023-11-18T11:00:02;98672.91;;;9.33;78.13
9889;BME280;4983;42.112;24.738;2023-11-18T11:02:30;98662.06;;;9.59;77.94
9889;BME280;4983;42.112;24.738;2023-11-18T11:05:01;98659.72;;;9.64;77.73
9889;BME280;4983;42.112;24.738;2023-11-18T11:07:29;98670.31;;;9.49;77.54
9889;BME280;4983;42.112;24.738;2023-11-18T11:09:59;98674.25;;;9.63;79.48
9889;BME280;4983;42.112;24.738;2023-11-18T11:12:33;98674.59;;;9.34;75.96
9889;BME280;4983;42.112;24.738;2023-11-18T11:15:08;98691.53;;;9.44;78.90
9889;BME280;4983;42.112;24.738;2023-11-18T11:17:51;98687.31;;;9.42;77.56
9889;BME280;4983;42.112;24.738;2023-11-18T11:20:21;98677.16;;;9.44;78.13
9889;BME280;4983;42.112;24.738;2023-11-18T11:22:59;98722.84;;;9.29;76.79
9889;BME280;4983;42.112;24.738;2023-11-18T11:25:46;98692.41;;;9.19;77.47
9889;BME280;4983;42.112;24.738;2023-11-18T11:28:20;98679.06;;;9.18;77.60
9889;BME280;4983;42.112;24.738;2023-11-18T11:30:55;98698.75;;;9.10;76.55
9889;BME280;4983;42.112;24.738;2023-11-18T11:33:30;98716.31;;;9.14;77.62
9889;BME280;4983;42.112;24.738;2023-11-18T11:36:03;98695.09;;;8.94;77.69
9889;BME280;4983;42.112;24.738;2023-11-18T11:38:37;98714.66;;;8.96;78.28
9889;BME280;4983;42.112;24.738;2023-11-18T11:41:06;98711.66;;;8.99;76.61
9889;BME280;4983;42.112;24.738;2023-11-18T11:43:34;98723.28;;;8.99;77.38
9889;BME280;4983;42.112;24.738;2023-11-18T11:46:03;98689.47;;;8.88;76.11
9889;BME280;4983;42.112;24.738;2023-11-18T11:48:36;98692.66;;;8.83;77.61
9889;BME280;4983;42.112;24.738;2023-11-18T11:51:11;98718.53;;;8.93;77.93
9889;BME280;4983;42.112;24.738;2023-11-18T11:53:49;98700.00;;;8.98;76.50
9889;BME280;4983;42.112;24.738;2023-11-18T11:56:18;98695.34;;;8.83;76.86
9889;BME280;4983;42.112;24.738;2023-11-18T11:58:49;98723.00;;;8.85;76.94
9889;BME280;4983;42.112;24.738;2023-11-18T12:01:26;98692.78;;;8.99;75.55
9889;BME280;4983;42.112;24.738;2023-11-18T12:03:59;98700.88;;;9.50;74.47
9889;BME280;4983;42.112;24.738;2023-11-18T12:06:33;98699.78;;;9.43;74.06
9889;BME280;4983;42.112;24.738;2023-11-18T12:09:03;98681.09;;;9.49;74.47
9889;BME280;4983;42.112;24.738;2023-11-18T12:11:33;98675.59;;;9.67;74.23
9889;BME280;4983;42.112;24.738;2023-11-18T12:14:06;98707.25;;;9.82;75.58
9889;BME280;4983;42.112;24.738;2023-11-18T12:17:01;98689.19;;;9.49;74.41
9889;BME280;4983;42.112;24.738;2023-11-18T12:19:34;98727.34;;;9.21;74.60
9889;BME280;4983;42.112;24.738;2023-11-18T12:22:13;98719.28;;;9.03;77.13
9889;BME280;4983;42.112;24.738;2023-11-18T12:24:45;98721.41;;;8.92;77.31
9889;BME280;4983;42.112;24.738;2023-11-18T12:27:42;98736.75;;;8.74;76.14
9889;BME280;4983;42.112;24.738;2023-11-18T12:30:38;98738.94;;;8.71;78.52
9889;BME280;4983;42.112;24.738;2023-11-18T12:33:10;98727.66;;;8.58;76.25
9889;BME280;4983;42.112;24.738;2023-11-18T12:36:09;98730.16;;;8.51;78.66
9889;BME280;4983;42.112;24.738;2023-11-18T12:41:43;98742.38;;;8.46;78.78
9889;BME280;4983;42.112;24.738;2023-11-18T12:44:28;98753.88;;;8.48;79.40
9889;BME280;4983;42.112;24.738;2023-11-18T12:46:59;98748.09;;;8.43;79.04
9889;BME280;4983;42.112;24.738;2023-11-18T12:49:41;98755.16;;;8.44;78.74
9889;BME280;4983;42.112;24.738;2023-11-18T12:52:10;98753.31;;;8.44;79.15
9889;BME280;4983;42.112;24.738;2023-11-18T12:54:38;98758.00;;;8.42;78.86
9889;BME280;4983;42.112;24.738;2023-11-18T12:57:09;98760.63;;;8.34;79.15
9889;BME280;4983;42.112;24.738;2023-11-18T12:59:40;98757.63;;;8.37;79.02
9889;BME280;4983;42.112;24.738;2023-11-18T13:02:08;98768.41;;;8.37;79.20
9889;BME280;4983;42.112;24.738;2023-11-18T13:04:41;98743.13;;;8.38;78.67
9889;BME280;4983;42.112;24.738;2023-11-18T13:07:08;98730.50;;;8.39;78.12
9889;BME280;4983;42.112;24.738;2023-11-18T13:09:37;98773.78;;;8.37;78.51
9889;BME280;4983;42.112;24.738;2023-11-18T13:12:07;98769.41;;;8.36;78.24
9889;BME280;4983;42.112;24.738;2023-11-18T13:14:35;98765.41;;;8.40;78.65
9889;BME280;4983;42.112;24.738;2023-11-18T13:17:03;98774.78;;;8.36;78.33
9889;BME280;4983;42.112;24.738;2023-11-18T13:19:32;98774.66;;;8.38;78.84
9889;BME280;4983;42.112;24.738;2023-11-18T13:22:03;98788.66;;;8.41;79.58
9889;BME280;4983;42.112;24.738;2023-11-18T13:24:32;98767.38;;;8.38;77.77
9889;BME280;4983;42.112;24.738;2023-11-18T13:27:02;98779.34;;;8.36;78.26
9889;BME280;4983;42.112;24.738;2023-11-18T13:29:30;98782.34;;;8.33;77.64